Time;durP1;ratioP1;P1;durP2;ratioP2;P2;SDS_P1;SDS_P2;PMS_P1;PMS_P2;Temp;Humidity;BMP_temperature;BMP_pressure;BME280_temperature;BME280_humidity;BME280_pressure;Samples;Min_cycle;Max_cycle;Signal;HPM_P1;HPM_P2
2021/12/28 00:01:58;;;;;;;32.00;18.55;;;;;;;-0.99;100.00;97128.88;4091169;28;20043;-71
2021/12/28 00:03:59;;;;;;;24.55;15.50;;;;;;;-0.99;100.00;97128.88;4089985;28;20043;-71
2021/12/28 00:06:00;;;;;;;30.88;15.85;;;;;;;-0.99;100.00;97137.03;4092066;28;20108;-71
2021/12/28 00:08:00;;;;;;;27.70;15.85;;;;;;;-0.99;100.00;97135.09;4093603;28;20077;-71
2021/12/28 00:10:01;;;;;;;28.08;14.80;;;;;;;-0.95;100.00;97132.50;4173000;28;20041;-71
2021/12/28 00:12:01;;;;;;;25.52;15.50;;;;;;;-0.96;100.00;97120.84;4091582;28;20110;-71
2021/12/28 00:14:04;;;;;;;25.83;15.57;;;;;;;-0.94;100.00;97128.63;4088801;28;20035;-71
2021/12/28 00:18:06;;;;;;;23.92;14.07;;;;;;;-0.92;100.00;97129.09;4089337;28;20027;-70
2021/12/28 00:20:07;;;;;;;22.77;13.80;;;;;;;-0.91;100.00;97127.97;4089337;28;20416;-71
2021/12/28 00:22:07;;;;;;;21.73;13.02;;;;;;;-0.91;100.00;97122.53;4090537;28;20251;-71
2021/12/28 00:24:08;;;;;;;22.75;14.05;;;;;;;-0.90;100.00;97119.50;4089866;28;20482;-71
2021/12/28 00:26:11;;;;;;;22.33;13.02;;;;;;;-0.90;100.00;97105.13;4088420;28;20510;-71
2021/12/28 00:28:11;;;;;;;;;;;;;;;-0.84;100.00;97111.91;4089558;28;20282;-71
2021/12/28 00:30:11;;;;;;;24.70;14.18;;;;;;;-0.82;100.00;97123.25;4089864;28;19984;-71
2021/12/28 00:32:12;;;;;;;24.65;13.85;;;;;;;-0.78;100.00;97117.94;4089599;28;20494;-71
2021/12/28 00:34:12;;;;;;;21.27;12.18;;;;;;;-0.77;100.00;97104.00;4089920;28;20307;-71
2021/12/28 00:36:14;;;;;;;23.40;12.60;;;;;;;-0.80;100.00;97103.91;4088393;28;20368;-71
2021/12/28 00:38:19;;;;;;;19.45;11.82;;;;;;;-0.83;100.00;97099.91;4088595;28;20130;-70
2021/12/28 00:40:19;;;;;;;21.63;11.70;;;;;;;-0.78;100.00;97099.72;4090755;28;20033;-70
2021/12/28 00:42:20;;;;;;;17.77;11.88;;;;;;;-0.77;100.00;97097.78;4088937;28;20094;-70
2021/12/28 00:44:20;;;;;;;20.00;10.52;;;;;;;-0.87;100.00;97086.22;4092000;28;20126;-70
2021/12/28 00:46:20;;;;;;;13.57;8.43;;;;;;;-0.72;100.00;97092.94;4175467;28;20087;-70
2021/12/28 00:48:21;;;;;;;12.40;8.38;;;;;;;-0.61;100.00;97079.69;4089864;28;20047;-70
2021/12/28 00:50:22;;;;;;;13.60;8.30;;;;;;;-0.58;100.00;97076.28;4093462;28;20097;-70
2021/12/28 00:52:23;;;;;;;15.90;8.52;;;;;;;-0.60;100.00;97067.69;4093073;28;20039;-70
2021/12/28 00:54:23;;;;;;;12.07;7.40;;;;;;;-0.55;100.00;97064.75;4092871;28;20061;-70
2021/12/28 00:56:24;;;;;;;10.05;6.78;;;;;;;-0.52;100.00;97050.47;4092411;28;20534;-70
2021/12/28 00:58:24;;;;;;;13.43;6.60;;;;;;;-0.43;100.00;97053.09;4090687;28;20165;-70
2021/12/28 01:00:28;;;;;;;9.00;5.90;;;;;;;-0.37;100.00;97049.00;4090863;28;20092;-70
2021/12/28 01:02:29;;;;;;;17.90;9.65;;;;;;;-0.29;100.00;97057.03;4093785;28;20058;-70
2021/12/28 01:04:29;;;;;;;15.23;9.68;;;;;;;-0.17;100.00;97047.28;4094666;28;20050;-70
2021/12/28 01:06:30;;;;;;;13.60;8.48;;;;;;;-0.14;100.00;97052.84;4090429;28;20414;-70
2021/12/28 01:08:30;;;;;;;20.75;12.32;;;;;;;-0.18;100.00;97042.97;4092157;28;20081;-70
2021/12/28 01:10:37;;;;;;;17.50;11.77;;;;;;;-0.22;100.00;97036.66;4091792;28;20043;-70
2021/12/28 01:12:37;;;;;;;39.80;23.77;;;;;;;-0.18;100.00;97045.69;4090873;28;20108;-70
2021/12/28 01:14:38;;;;;;;28.15;16.33;;;;;;;-0.20;100.00;97040.59;4092539;28;20043;-70
2021/12/28 01:16:38;;;;;;;21.60;13.02;;;;;;;-0.23;100.00;97038.59;4092207;28;20043;-70
2021/12/28 01:18:38;;;;;;;15.77;10.93;;;;;;;-0.24;100.00;97044.38;4090321;28;20063;-70
2021/12/28 01:20:43;;;;;;;17.30;9.95;;;;;;;-0.25;100.00;97042.75;4093302;28;20177;-70
2021/12/28 01:22:46;;;;;;;14.27;8.88;;;;;;;-0.32;100.00;97041.44;4091521;28;20285;-70
2021/12/28 01:24:46;;;;;;;11.52;6.88;;;;;;;-0.31;100.00;97043.00;4095018;28;20051;-70
2021/12/28 01:26:47;;;;;;;9.13;6.00;;;;;;;-0.28;100.00;97041.53;4091201;28;20047;-70
2021/12/28 01:28:47;;;;;;;9.05;5.97;;;;;;;-0.26;100.00;97044.69;4090648;28;20104;-70
2021/12/28 01:30:48;;;;;;;9.90;5.90;;;;;;;-0.19;100.00;97044.13;4091845;28;20043;-70
2021/12/28 01:32:49;;;;;;;8.68;6.07;;;;;;;-0.17;100.00;97037.19;4091393;28;20050;-70
2021/12/28 01:34:50;;;;;;;10.27;7.15;;;;;;;-0.10;100.00;97044.78;4093148;28;20043;-70
2021/12/28 01:36:51;;;;;;;8.40;6.18;;;;;;;-0.09;100.00;97060.75;4091710;28;20051;-70
2021/12/28 01:38:51;;;;;;;9.75;5.70;;;;;;;-0.03;100.00;97053.16;4091773;28;20432;-70
2021/12/28 01:40:53;;;;;;;11.25;6.15;;;;;;;0.04;100.00;97052.56;4088479;28;20050;-70
2021/12/28 01:43:06;;;;;;;10.02;5.60;;;;;;;0.09;100.00;97052.34;4092092;28;20494;-70
2021/12/28 01:45:07;;;;;;;9.10;5.78;;;;;;;0.10;100.00;97059.34;4094740;28;20062;-70
2021/12/28 01:47:07;;;;;;;8.13;5.68;;;;;;;0.04;100.00;97053.34;4090133;28;20039;-70
2021/12/28 01:49:10;;;;;;;8.60;5.55;;;;;;;-0.02;100.00;97054.72;4092080;28;20054;-70
2021/12/28 01:51:14;;;;;;;12.10;5.85;;;;;;;-0.10;100.00;97056.44;4091948;28;20043;-70
2021/12/28 01:53:16;;;;;;;8.23;5.38;;;;;;;-0.12;100.00;97060.66;4090666;28;20364;-70
2021/12/28 01:55:16;;;;;;;9.80;6.40;;;;;;;-0.03;100.00;97072.97;4090451;28;20442;-70
2021/12/28 01:57:19;;;;;;;6.70;4.95;;;;;;;-0.03;100.00;97064.03;4091629;28;20295;-70
2021/12/28 01:59:20;;;;;;;;;;;;;;;0.02;100.00;97074.66;4090995;28;20517;-70
2021/12/28 02:01:21;;;;;;;7.80;4.45;;;;;;;-0.04;100.00;97060.50;4091755;28;19927;-70
2021/12/28 02:03:23;;;;;;;7.65;4.25;;;;;;;-0.06;100.00;97064.72;4090158;28;20074;-70
2021/12/28 02:05:25;;;;;;;8.82;4.80;;;;;;;-0.10;100.00;97059.16;4091997;28;20074;-69
2021/12/28 02:07:25;;;;;;;7.93;4.80;;;;;;;-0.04;100.00;97054.28;4091894;28;20043;-70
2021/12/28 02:09:26;;;;;;;6.63;4.10;;;;;;;-0.03;100.00;97062.09;4096692;28;20144;-70
2021/12/28 02:11:26;;;;;;;6.15;4.20;;;;;;;-0.05;100.00;97049.97;4091374;28;20499;-70
2021/12/28 02:13:27;;;;;;;5.65;4.25;;;;;;;-0.09;100.00;97047.16;4090475;28;20519;-70
2021/12/28 02:15:28;;;;;;;5.68;3.60;;;;;;;-0.09;100.00;97049.84;4090572;28;20526;-70
2021/12/28 02:17:28;;;;;;;6.93;3.67;;;;;;;-0.08;100.00;97043.31;4090327;28;20062;-70
2021/12/28 02:19:28;;;;;;;6.95;4.15;;;;;;;-0.02;100.00;97047.34;4092772;28;20051;-70
2021/12/28 02:21:32;;;;;;;6.60;4.22;;;;;;;0.05;100.00;97038.63;4089759;28;20071;-70
2021/12/28 02:23:33;;;;;;;8.40;4.47;;;;;;;0.09;100.00;97030.59;4092055;28;20069;-70
2021/12/28 02:25:35;;;;;;;5.97;4.20;;;;;;;0.13;100.00;97036.91;4091865;28;20408;-70
2021/12/28 02:27:36;;;;;;;6.32;4.05;;;;;;;0.24;100.00;97029.81;4088757;28;20051;-70
2021/12/28 02:29:37;;;;;;;5.47;3.70;;;;;;;0.27;100.00;97038.09;4090102;28;20497;-70
2021/12/28 02:31:37;;;;;;;6.15;3.88;;;;;;;0.30;100.00;97033.91;4091533;28;20134;-70
2021/12/28 02:33:38;;;;;;;5.68;3.60;;;;;;;0.43;100.00;97021.84;4089087;28;20053;-70
2021/12/28 02:35:39;;;;;;;6.38;3.78;;;;;;;0.55;100.00;97027.22;4091427;28;20047;-70
2021/12/28 02:37:40;;;;;;;5.90;3.63;;;;;;;0.55;100.00;97019.03;4091912;28;20054;-70
2021/12/28 02:39:40;;;;;;;6.25;3.47;;;;;;;0.51;100.00;97018.16;4089722;28;20043;-70
2021/12/28 02:41:41;;;;;;;5.22;3.70;;;;;;;0.56;100.00;97011.66;4090758;28;20134;-70
2021/12/28 02:43:45;;;;;;;5.03;3.40;;;;;;;0.56;100.00;97015.19;4091290;28;20828;-70
2021/12/28 02:45:49;;;;;;;6.50;4.10;;;;;;;0.66;100.00;97013.88;4089894;28;20129;-70
2021/12/28 02:47:50;;;;;;;5.18;3.25;;;;;;;0.67;100.00;97011.97;4090597;28;20402;-70
2021/12/28 02:49:50;;;;;;;4.63;3.15;;;;;;;0.65;100.00;97006.06;4091429;28;20139;-70
2021/12/28 02:51:51;;;;;;;4.82;3.40;;;;;;;0.64;100.00;97004.47;4089643;28;20043;-70
2021/12/28 02:53:51;;;;;;;4.85;3.22;;;;;;;0.71;100.00;97010.91;4090922;28;20064;-70
2021/12/28 02:55:53;;;;;;;5.90;3.85;;;;;;;0.85;100.00;97007.78;4092337;28;20357;-70
2021/12/28 02:57:57;;;;;;;4.30;3.05;;;;;;;0.83;100.00;97010.06;4092185;28;20074;-70
2021/12/28 02:59:58;;;;;;;5.03;3.38;;;;;;;0.77;100.00;97006.78;4091375;28;20043;-70
2021/12/28 03:01:58;;;;;;;7.03;4.32;;;;;;;0.72;100.00;97007.03;4090619;28;20728;-70
2021/12/28 03:04:05;;;;;;;5.40;3.45;;;;;;;0.70;100.00;97001.16;4090369;28;20043;-70
2021/12/28 03:06:07;;;;;;;4.43;3.25;;;;;;;0.71;100.00;97010.91;4091997;28;20062;-70
2021/12/28 03:08:08;;;;;;;6.30;3.95;;;;;;;0.80;100.00;97014.25;4088691;28;20039;-71
2021/12/28 03:10:09;;;;;;;4.93;2.97;;;;;;;0.80;100.00;97008.03;4096709;28;20039;-71
2021/12/28 03:12:09;;;;;;;11.85;6.13;;;;;;;0.92;100.00;97010.69;4091015;28;20022;-70
2021/12/28 03:14:10;;;;;;;10.52;6.45;;;;;;;0.92;100.00;96999.78;4090021;28;20047;-71
2021/12/28 03:16:11;;;;;;;6.90;4.15;;;;;;;0.89;100.00;96981.41;4088609;28;20050;-70
2021/12/28 03:18:11;;;;;;;6.45;4.35;;;;;;;0.83;100.00;96991.00;4089438;28;20039;-71
2021/12/28 03:20:13;;;;;;;6.68;4.20;;;;;;;0.84;100.00;96996.09;4094914;28;20054;-71
2021/12/28 03:22:13;;;;;;;7.00;4.00;;;;;;;0.87;100.00;96993.81;4087656;28;20483;-70
2021/12/28 03:24:14;;;;;;;5.22;3.47;;;;;;;0.79;100.00;96993.63;4089358;28;20038;-70
2021/12/28 03:26:14;;;;;;;5.82;3.65;;;;;;;0.69;100.00;96990.63;4088990;28;20038;-71
2021/12/28 03:28:27;;;;;;;6.30;4.15;;;;;;;0.77;100.00;96985.00;4089117;28;20038;-71
2021/12/28 03:30:27;;;;;;;4.82;3.47;;;;;;;0.74;100.00;96979.47;4087048;28;20487;-71
2021/12/28 03:32:28;;;;;;;3.65;2.50;;;;;;;0.67;100.00;96987.47;4088458;28;20074;-71
2021/12/28 03:34:29;;;;;;;3.40;2.63;;;;;;;0.58;100.00;96963.16;4088359;28;20092;-71
2021/12/28 03:36:29;;;;;;;3.60;2.63;;;;;;;0.64;100.00;96961.72;4087227;28;20093;-71
2021/12/28 03:38:30;;;;;;;4.68;2.80;;;;;;;0.70;100.00;96951.38;4088196;28;20054;-71
2021/12/28 03:40:30;;;;;;;5.75;3.20;;;;;;;0.79;100.00;96957.44;4092672;28;20051;-71
2021/12/28 03:42:31;;;;;;;3.92;2.90;;;;;;;0.87;100.00;96959.19;4089601;28;20487;-71
2021/12/28 03:44:32;;;;;;;6.45;3.15;;;;;;;0.94;100.00;96950.41;4087792;28;20475;-71
2021/12/28 03:46:32;;;;;;;6.97;2.80;;;;;;;0.98;100.00;96951.28;4087527;28;20047;-71
2021/12/28 03:48:34;;;;;;;4.60;3.10;;;;;;;1.06;100.00;96945.66;4088057;28;20178;-71
2021/12/28 03:50:35;;;;;;;4.43;3.30;;;;;;;1.22;100.00;96961.19;4088233;28;20078;-71
2021/12/28 03:52:36;;;;;;;5.07;3.15;;;;;;;1.20;100.00;96963.47;4088138;28;20074;-71
2021/12/28 03:54:37;;;;;;;4.50;3.00;;;;;;;1.16;100.00;96962.59;4088537;28;20050;-71
2021/12/28 03:56:37;;;;;;;4.97;3.05;;;;;;;1.11;100.00;96961.72;4091019;28;20166;-71
2021/12/28 03:58:40;;;;;;;8.52;3.92;;;;;;;1.21;100.00;96959.59;4087320;28;20212;-71
2021/12/28 04:00:45;;;;;;;5.97;2.97;;;;;;;1.19;100.00;96954.53;4087461;28;20407;-71
2021/12/28 04:02:45;;;;;;;5.18;2.97;;;;;;;1.20;100.00;96953.38;4088187;28;20047;-71
2021/12/28 04:04:46;;;;;;;4.72;3.13;;;;;;;1.25;100.00;96955.06;4091859;28;20058;-71
2021/12/28 04:06:46;;;;;;;4.65;2.45;;;;;;;1.30;100.00;96949.31;4088659;28;20047;-71
2021/12/28 04:08:48;;;;;;;4.75;2.85;;;;;;;1.34;100.00;96952.91;4087398;28;20077;-71
2021/12/28 04:11:01;;;;;;;6.22;3.00;;;;;;;1.31;100.00;96951.66;4090334;28;20518;-71
2021/12/28 04:13:02;;;;;;;5.35;2.70;;;;;;;1.32;100.00;96952.47;4096773;28;20044;-71
2021/12/28 04:15:05;;;;;;;4.50;3.08;;;;;;;1.35;100.00;96938.94;4088140;28;20055;-71
2021/12/28 04:17:06;;;;;;;4.95;3.03;;;;;;;1.37;100.00;96933.91;4086325;28;20047;-71
2021/12/28 04:19:06;;;;;;;6.03;3.17;;;;;;;1.32;100.00;96930.66;4091359;28;20049;-71
2021/12/28 04:21:07;;;;;;;5.80;3.10;;;;;;;1.23;100.00;96932.78;4090624;28;20043;-71
2021/12/28 04:23:08;;;;;;;5.68;3.30;;;;;;;1.20;100.00;96941.69;4089736;28;20047;-71
2021/12/28 04:25:11;;;;;;;6.13;3.60;;;;;;;1.12;100.00;96938.78;4091809;28;20054;-71
2021/12/28 04:27:11;;;;;;;5.57;3.20;;;;;;;1.20;100.00;96949.84;4093163;28;20396;-71
2021/12/28 04:29:12;;;;;;;6.30;3.00;;;;;;;1.09;100.00;96936.78;4090253;28;20059;-71
2021/12/28 04:31:12;;;;;;;4.15;2.72;;;;;;;1.06;100.00;96936.69;4088938;28;20086;-71
2021/12/28 04:33:13;;;;;;;5.25;3.10;;;;;;;0.97;100.00;96945.03;4095104;28;20077;-70
2021/12/28 04:35:14;;;;;;;4.85;3.53;;;;;;;0.99;100.00;96940.03;4092203;28;20056;-71
2021/12/28 04:37:14;;;;;;;6.15;4.00;;;;;;;0.99;100.00;96942.75;4089013;28;20502;-71
2021/12/28 04:39:15;;;;;;;8.52;3.92;;;;;;;0.94;100.00;96939.53;4091214;28;20109;-71
2021/12/28 04:41:16;;;;;;;6.78;3.75;;;;;;;0.91;100.00;96930.13;4089566;28;20055;-71
2021/12/28 04:43:16;;;;;;;6.88;3.35;;;;;;;0.90;100.00;96941.34;4091690;28;20326;-71
2021/12/28 04:45:17;;;;;;;8.73;5.03;;;;;;;0.92;100.00;96925.47;4089877;28;20153;-71
2021/12/28 04:47:17;;;;;;;5.72;3.75;;;;;;;0.88;100.00;96930.03;4090010;28;20402;-71
2021/12/28 04:49:20;;;;;;;6.90;4.32;;;;;;;0.82;100.00;96926.78;4089863;28;20053;-71
2021/12/28 04:51:22;;;;;;;;;;;;;;;0.80;100.00;96923.63;4090457;28;20094;-71
2021/12/28 04:53:23;;;;;;;5.75;3.38;;;;;;;0.81;100.00;96933.38;4090258;28;20321;-71
2021/12/28 04:55:23;;;;;;;5.40;3.40;;;;;;;0.77;100.00;96929.78;4089052;28;20082;-71
2021/12/28 04:57:23;;;;;;;6.20;3.70;;;;;;;0.78;100.00;96934.06;4089979;28;20047;-71
2021/12/28 04:59:24;;;;;;;9.25;4.05;;;;;;;0.73;100.00;96918.00;4093910;28;20046;-71
2021/12/28 05:01:24;;;;;;;7.70;3.30;;;;;;;0.73;100.00;96934.31;4090988;28;20047;-71
2021/12/28 05:03:24;;;;;;;7.35;3.38;;;;;;;0.65;100.00;96924.41;4089065;28;20475;-71
2021/12/28 05:05:25;;;;;;;5.10;3.28;;;;;;;0.54;100.00;96933.09;4089453;28;20043;-71
2021/12/28 05:07:27;;;;;;;5.93;3.22;;;;;;;0.49;100.00;96922.47;4089497;28;20553;-71
2021/12/28 05:09:27;;;;;;;5.27;3.77;;;;;;;0.45;100.00;96915.34;4099091;28;20506;-71
2021/12/28 05:11:30;;;;;;;4.93;3.03;;;;;;;0.41;100.00;96912.53;4089810;28;20047;-71
2021/12/28 05:13:31;;;;;;;6.07;3.78;;;;;;;0.40;100.00;96915.59;4096809;28;20103;-71
2021/12/28 05:15:31;;;;;;;8.00;3.80;;;;;;;0.39;100.00;96920.25;4095577;28;20138;-71
2021/12/28 05:17:32;;;;;;;4.32;3.05;;;;;;;0.42;100.00;96921.50;4094056;28;20546;-70
2021/12/28 05:19:33;;;;;;;6.78;3.00;;;;;;;0.40;100.00;96910.16;4089545;28;20043;-71
2021/12/28 05:21:35;;;;;;;7.53;3.85;;;;;;;0.52;100.00;96916.34;4090520;28;20143;-71
2021/12/28 05:23:36;;;;;;;6.63;3.37;;;;;;;0.51;100.00;96919.41;4089816;28;20117;-71
2021/12/28 05:25:36;;;;;;;4.70;3.38;;;;;;;0.58;100.00;96916.88;4089927;28;20279;-71
2021/12/28 05:27:37;;;;;;;6.05;3.55;;;;;;;0.65;100.00;96913.50;4089474;28;20078;-70
2021/12/28 05:29:37;;;;;;;5.25;3.17;;;;;;;0.64;100.00;96918.16;4090185;28;20046;-70
2021/12/28 05:31:38;;;;;;;4.30;3.17;;;;;;;0.63;100.00;96913.88;4088859;28;20039;-71
2021/12/28 05:33:39;;;;;;;5.07;2.97;;;;;;;0.62;100.00;96908.78;4090157;28;20368;-71
2021/12/28 05:35:40;;;;;;;4.15;2.90;;;;;;;0.61;100.00;96915.38;4089467;28;20084;-71
2021/12/28 05:37:40;;;;;;;6.53;2.90;;;;;;;0.61;100.00;96912.66;4088069;28;20497;-71
2021/12/28 05:39:41;;;;;;;5.22;3.08;;;;;;;0.60;100.00;96908.34;4090848;28;20487;-71
2021/12/28 05:41:41;;;;;;;6.20;2.90;;;;;;;0.57;100.00;96896.22;4089430;28;20051;-71
2021/12/28 05:43:41;;;;;;;6.72;2.90;;;;;;;0.57;100.00;96901.66;4089380;28;20082;-71
2021/12/28 05:45:45;;;;;;;7.82;3.28;;;;;;;0.57;100.00;96898.94;4089579;28;20047;-71
2021/12/28 05:47:45;;;;;;;5.47;3.28;;;;;;;0.57;100.00;96899.72;4091910;28;20862;-71
2021/12/28 05:49:46;;;;;;;6.55;2.85;;;;;;;0.51;100.00;96893.00;4088629;28;20434;-71
2021/12/28 05:51:47;;;;;;;6.88;3.08;;;;;;;0.49;100.00;96894.47;4089313;28;20074;-71
2021/12/28 05:53:47;;;;;;;6.10;2.83;;;;;;;0.43;100.00;96893.94;4089311;28;20074;-71
2021/12/28 05:55:48;;;;;;;4.97;3.53;;;;;;;0.44;100.00;96881.91;4080164;28;20062;-71
2021/12/28 05:57:48;;;;;;;8.95;3.78;;;;;;;0.41;100.00;96890.75;4087716;28;20055;-71
2021/12/28 05:59:48;;;;;;;6.07;3.60;;;;;;;0.40;100.00;96883.75;4089873;28;20093;-71
2021/12/28 06:01:49;;;;;;;6.53;3.67;;;;;;;0.41;100.00;96882.59;4089172;28;20513;-71
2021/12/28 06:03:49;;;;;;;5.82;4.18;;;;;;;0.48;100.00;96890.94;4090433;28;20241;-71
2021/12/28 06:05:50;;;;;;;7.18;3.92;;;;;;;0.49;100.00;96889.00;4088768;28;20055;-71
2021/12/28 06:07:50;;;;;;;9.70;4.18;;;;;;;0.53;100.00;96889.91;4088928;28;20047;-71
2021/12/28 06:09:50;;;;;;;6.75;3.90;;;;;;;0.53;100.00;96885.25;4089160;28;20063;-70
2021/12/28 06:11:51;;;;;;;7.60;4.40;;;;;;;0.55;100.00;96874.81;4089404;28;20454;-71
2021/12/28 06:13:51;;;;;;;6.50;4.32;;;;;;;0.65;100.00;96883.56;4090133;28;20597;-71
2021/12/28 06:15:52;;;;;;;6.95;4.38;;;;;;;0.69;100.00;96884.47;4090593;28;20374;-71
2021/12/28 06:17:52;;;;;;;8.43;4.15;;;;;;;0.79;100.00;96886.66;4088876;28;20167;-71
2021/12/28 06:19:52;;;;;;;5.93;3.85;;;;;;;0.83;100.00;96885.59;4089355;28;20043;-71
2021/12/28 06:21:53;;;;;;;9.52;4.10;;;;;;;0.83;100.00;96887.53;4089020;28;20050;-71
2021/12/28 06:23:53;;;;;;;6.50;3.92;;;;;;;0.77;100.00;96869.88;4089083;28;20471;-71
2021/12/28 06:25:54;;;;;;;6.07;3.83;;;;;;;0.75;100.00;96891.22;4089399;28;20426;-71
2021/12/28 06:27:54;;;;;;;6.55;4.10;;;;;;;0.82;100.00;96884.00;4096392;28;20876;-71
2021/12/28 06:29:55;;;;;;;6.50;3.60;;;;;;;0.84;100.00;96887.19;4088374;28;20067;-70
2021/12/28 06:31:55;;;;;;;7.07;4.35;;;;;;;0.81;100.00;96871.53;4099371;28;20357;-71
2021/12/28 06:33:57;;;;;;;11.45;4.60;;;;;;;0.82;100.00;96872.31;4090318;28;20070;-71
2021/12/28 06:35:58;;;;;;;9.00;4.82;;;;;;;0.81;100.00;96876.97;4089617;28;20086;-71
2021/12/28 06:37:59;;;;;;;7.30;4.45;;;;;;;0.75;100.00;96881.13;4088647;28;20358;-71
2021/12/28 06:40:00;;;;;;;12.10;4.63;;;;;;;0.71;100.00;96871.28;4091821;28;20051;-71
2021/12/28 06:42:00;;;;;;;11.73;5.45;;;;;;;0.85;100.00;96866.19;4088176;28;20392;-71
2021/12/28 06:44:00;;;;;;;10.63;6.00;;;;;;;0.71;100.00;96863.13;4087361;28;20113;-71
2021/12/28 06:46:01;;;;;;;10.75;5.18;;;;;;;0.77;100.00;96864.44;4089409;28;20054;-71
2021/12/28 06:48:02;;;;;;;13.32;5.78;;;;;;;0.77;100.00;96859.00;4087914;28;20077;-71
2021/12/28 06:50:03;;;;;;;11.13;5.53;;;;;;;0.76;100.00;96854.69;4088119;28;20126;-71
2021/12/28 06:52:06;;;;;;;10.55;6.72;;;;;;;0.72;100.00;96856.53;4088439;28;20200;-71
2021/12/28 06:54:06;;;;;;;15.43;7.22;;;;;;;0.70;100.00;96856.88;4090458;28;20081;-71
2021/12/28 06:56:07;;;;;;;18.27;7.70;;;;;;;0.67;100.00;96856.81;4088707;28;20830;-71
2021/12/28 06:58:07;;;;;;;18.92;9.35;;;;;;;0.66;100.00;96858.72;4091786;28;20348;-71
2021/12/28 07:00:12;;;;;;;17.58;9.13;;;;;;;0.63;100.00;96864.09;4088890;28;20498;-71
2021/12/28 07:02:14;;;;;;;20.63;9.88;;;;;;;0.59;100.00;96860.50;4093849;28;20061;-71
2021/12/28 07:04:14;;;;;;;30.90;14.38;;;;;;;0.57;100.00;96863.56;4090617;28;20415;-71
2021/12/28 07:06:16;;;;;;;28.85;13.43;;;;;;;0.54;100.00;96864.28;4087900;28;20039;-71
2021/12/28 07:08:16;;;;;;;21.70;11.45;;;;;;;0.55;100.00;96861.19;4087981;28;20035;-71
2021/12/28 07:10:20;;;;;;;27.20;13.35;;;;;;;0.62;100.00;96855.13;4092377;28;20532;-71
2021/12/28 07:12:20;;;;;;;32.95;13.45;;;;;;;0.59;100.00;96844.97;4087880;28;20068;-71
2021/12/28 07:14:21;;;;;;;28.92;14.43;;;;;;;0.57;100.00;96845.28;4089229;28;20138;-71
2021/12/28 07:16:21;;;;;;;33.33;14.63;;;;;;;0.58;100.00;96835.22;4093887;28;20078;-71
2021/12/28 07:18:21;;;;;;;30.80;14.63;;;;;;;0.63;100.00;96829.50;4087317;28;20046;-71
2021/12/28 07:20:22;;;;;;;33.55;16.02;;;;;;;0.67;100.00;96827.66;4089466;28;20092;-71
2021/12/28 07:22:22;;;;;;;29.15;13.43;;;;;;;0.71;100.00;96828.53;4095512;28;20058;-71
2021/12/28 07:24:23;;;;;;;23.58;10.88;;;;;;;0.75;100.00;96839.50;4092421;28;20477;-71
2021/12/28 07:26:23;;;;;;;14.88;8.32;;;;;;;0.82;100.00;96836.94;4090216;28;20047;-71
2021/12/28 07:28:25;;;;;;;14.02;7.57;;;;;;;0.87;100.00;96836.66;4087718;28;20162;-71
2021/12/28 07:30:26;;;;;;;19.27;9.43;;;;;;;0.89;100.00;96825.41;4088144;28;20047;-71
2021/12/28 07:32:26;;;;;;;14.38;9.02;;;;;;;0.91;100.00;96836.72;4094796;28;20050;-71
2021/12/28 07:34:26;;;;;;;18.23;10.52;;;;;;;0.88;100.00;96810.22;4088311;28;20138;-71
2021/12/28 07:36:27;;;;;;;14.40;8.60;;;;;;;0.90;100.00;96825.06;4090051;28;20277;-71
2021/12/28 07:38:28;;;;;;;10.00;6.25;;;;;;;0.90;100.00;96833.22;4088699;28;20093;-71
2021/12/28 07:40:28;;;;;;;12.88;7.97;;;;;;;0.81;100.00;96821.75;4088474;28;20043;-71
2021/12/28 07:42:29;;;;;;;15.43;7.72;;;;;;;0.82;100.00;96826.03;4088902;28;20044;-71
2021/12/28 07:44:30;;;;;;;15.45;8.60;;;;;;;0.84;100.00;96823.78;4087065;28;20050;-71
2021/12/28 07:46:30;;;;;;;14.32;8.20;;;;;;;0.85;100.00;96825.34;4088293;28;20047;-71
2021/12/28 07:48:31;;;;;;;17.40;8.07;;;;;;;0.87;100.00;96831.22;4087709;28;20528;-71
2021/12/28 07:50:31;;;;;;;18.77;8.60;;;;;;;0.96;100.00;96831.81;4089228;28;20043;-71
2021/12/28 07:52:32;;;;;;;13.07;8.60;;;;;;;1.02;100.00;96824.94;4087009;28;20717;-71
2021/12/28 07:54:32;;;;;;;15.40;8.10;;;;;;;1.01;100.00;96820.66;4087891;28;20104;-71
2021/12/28 07:56:33;;;;;;;14.48;8.10;;;;;;;1.03;100.00;96823.00;4087518;28;20073;-71
2021/12/28 07:58:34;;;;;;;15.27;6.93;;;;;;;1.02;100.00;96822.22;4087952;28;20130;-71
2021/12/28 08:00:34;;;;;;;11.40;6.00;;;;;;;0.99;100.00;96816.69;4087813;28;20763;-71
2021/12/28 08:02:35;;;;;;;11.75;7.13;;;;;;;0.95;100.00;96819.34;4093570;28;20124;-71
2021/12/28 08:04:35;;;;;;;10.65;6.50;;;;;;;0.92;100.00;96816.56;4091121;28;20047;-71
2021/12/28 08:06:36;;;;;;;12.93;5.40;;;;;;;0.94;100.00;96827.88;4095962;28;20538;-71
2021/12/28 08:08:36;;;;;;;12.95;7.20;;;;;;;0.92;100.00;96836.41;4088059;28;20043;-71
2021/12/28 08:10:37;;;;;;;14.43;6.43;;;;;;;0.86;100.00;96824.19;4097132;28;20101;-71
2021/12/28 08:12:38;;;;;;;23.58;10.05;;;;;;;0.91;100.00;96828.56;4087027;28;20518;-71
2021/12/28 08:14:38;;;;;;;21.30;8.13;;;;;;;0.90;100.00;96826.97;4087078;28;20048;-71
2021/12/28 08:16:38;;;;;;;27.33;10.07;;;;;;;0.95;100.00;96819.34;4089490;28;20050;-71
2021/12/28 08:18:39;;;;;;;24.23;9.52;;;;;;;0.96;100.00;96814.69;4089807;28;20048;-71
2021/12/28 08:20:39;;;;;;;15.68;7.97;;;;;;;1.01;100.00;96808.97;4087981;28;20052;-71
2021/12/28 08:22:41;;;;;;;22.70;9.23;;;;;;;0.99;100.00;96811.25;4092842;28;20044;-71
2021/12/28 08:24:41;;;;;;;23.67;10.18;;;;;;;0.97;100.00;96806.16;4087275;28;20245;-71
2021/12/28 08:26:42;;;;;;;20.17;8.45;;;;;;;0.98;100.00;96805.00;4087206;28;20125;-71
2021/12/28 08:28:42;;;;;;;22.90;10.13;;;;;;;1.06;100.00;96795.84;4086487;28;20530;-71
2021/12/28 08:30:44;;;;;;;28.05;11.77;;;;;;;1.09;100.00;96805.25;4087852;28;20082;-71
2021/12/28 08:32:45;;;;;;;33.05;17.98;;;;;;;1.05;100.00;96793.47;4092535;28;20091;-71
2021/12/28 08:34:46;;;;;;;27.90;17.77;;;;;;;1.04;100.00;96806.31;4087135;28;20051;-71
2021/12/28 08:36:46;;;;;;;21.67;12.88;;;;;;;1.05;100.00;96801.66;4089734;28;20465;-71
2021/12/28 08:38:47;;;;;;;20.42;12.95;;;;;;;1.04;100.00;96802.81;4092036;28;20047;-71
2021/12/28 08:40:47;;;;;;;18.23;11.93;;;;;;;1.07;100.00;96800.13;4087312;28;20047;-71
2021/12/28 08:42:48;;;;;;;23.45;12.45;;;;;;;1.07;100.00;96804.81;4086076;28;20052;-71
2021/12/28 08:44:49;;;;;;;22.02;11.43;;;;;;;1.04;100.00;96802.81;4088031;28;20408;-71
2021/12/28 08:46:50;;;;;;;19.45;12.23;;;;;;;1.03;100.00;96793.06;4087988;28;20634;-71
2021/12/28 08:48:51;;;;;;;19.92;11.25;;;;;;;0.98;100.00;96802.28;4086494;28;20086;-71
2021/12/28 08:50:51;;;;;;;16.48;8.70;;;;;;;1.01;100.00;96801.59;4086703;28;20101;-71
2021/12/28 08:52:52;;;;;;;15.20;9.57;;;;;;;0.99;100.00;96800.34;4087642;28;20049;-71
2021/12/28 08:54:52;;;;;;;14.43;9.02;;;;;;;1.04;100.00;96800.88;4086890;28;20128;-71
2021/12/28 08:56:53;;;;;;;15.98;7.57;;;;;;;1.07;100.00;96794.69;4086189;28;20047;-70
2021/12/28 08:58:53;;;;;;;19.83;8.90;;;;;;;1.12;100.00;96796.34;4087634;28;20251;-71
2021/12/28 09:00:54;;;;;;;16.77;9.10;;;;;;;1.15;100.00;96798.34;4086499;28;20410;-71
2021/12/28 09:02:56;;;;;;;16.20;10.05;;;;;;;1.19;100.00;96803.91;4087039;28;20443;-71
2021/12/28 09:04:57;;;;;;;19.33;10.95;;;;;;;1.25;100.00;96811.44;4092895;28;20065;-71
2021/12/28 09:06:57;;;;;;;22.25;10.30;;;;;;;1.28;100.00;96812.66;4089175;28;20535;-71
2021/12/28 09:08:58;;;;;;;32.08;14.25;;;;;;;1.30;100.00;96818.53;4089215;28;20057;-72
2021/12/28 09:10:58;;;;;;;30.83;14.90;;;;;;;1.26;100.00;96815.75;4092567;28;20074;-72
2021/12/28 09:12:58;;;;;;;29.40;14.35;;;;;;;1.30;100.00;96813.06;4090136;28;20051;-71
2021/12/28 09:14:59;;;;;;;38.50;19.42;;;;;;;1.29;100.00;96809.56;4094312;28;20615;-71
2021/12/28 09:16:59;;;;;;;33.92;16.88;;;;;;;1.34;100.00;96811.22;4092365;28;20043;-71
2021/12/28 09:19:00;;;;;;;32.30;15.13;;;;;;;1.36;100.00;96811.66;4089117;28;20219;-71
2021/12/28 09:21:00;;;;;;;22.30;11.65;;;;;;;1.39;100.00;96816.38;4091660;28;20051;-72
2021/12/28 09:23:01;;;;;;;26.48;14.40;;;;;;;1.37;100.00;96808.56;4090087;28;20529;-72
2021/12/28 09:25:01;;;;;;;30.52;15.15;;;;;;;1.38;100.00;96804.69;4094540;28;20047;-72
2021/12/28 09:27:02;;;;;;;30.48;14.68;;;;;;;1.38;100.00;96801.97;4089276;28;20059;-72